sensor_id;sensor_type;location;lat;lon;timestamp;P1;durP1;ratioP1;P2;durP2;ratioP2
47365;SDS011;33105;47.964;7.982;2023-07-29T00:01:24;3.05;;;1.40;;
47365;SDS011;33105;47.964;7.982;2023-07-29T00:04:27;10.52;;;1.30;;
47365;SDS011;33105;47.964;7.982;2023-07-29T00:07:31;6.38;;;1.38;;
47365;SDS011;33105;47.964;7.982;2023-07-29T00:10:44;2.95;;;1.27;;
47365;SDS011;33105;47.964;7.982;2023-07-29T00:23:33;3.38;;;1.30;;
47365;SDS011;33105;47.964;7.982;2023-07-29T00:27:55;8.52;;;1.60;;
47365;SDS011;33105;47.964;7.982;2023-07-29T00:31:15;1.80;;;1.20;;
47365;SDS011;33105;47.964;7.982;2023-07-29T00:34:50;4.38;;;1.40;;
47365;SDS011;33105;47.964;7.982;2023-07-29T00:37:49;11.32;;;1.60;;
47365;SDS011;33105;47.964;7.982;2023-07-29T00:40:51;1.55;;;1.27;;
47365;SDS011;33105;47.964;7.982;2023-07-29T00:44:01;11.23;;;1.40;;
47365;SDS011;33105;47.964;7.982;2023-07-29T00:47:38;4.55;;;1.45;;
47365;SDS011;33105;47.964;7.982;2023-07-29T00:50:50;3.55;;;1.52;;
47365;SDS011;33105;47.964;7.982;2023-07-29T00:54:12;6.97;;;1.30;;
47365;SDS011;33105;47.964;7.982;2023-07-29T01:07:16;1.77;;;1.20;;
47365;SDS011;33105;47.964;7.982;2023-07-29T01:10:46;3.25;;;1.70;;
47365;SDS011;33105;47.964;7.982;2023-07-29T01:14:04;3.40;;;1.52;;
47365;SDS011;33105;47.964;7.982;2023-07-29T01:17:22;5.40;;;1.60;;
47365;SDS011;33105;47.964;7.982;2023-07-29T01:20:54;2.65;;;1.70;;
47365;SDS011;33105;47.964;7.982;2023-07-29T01:24:59;2.42;;;1.33;;
47365;SDS011;33105;47.964;7.982;2023-07-29T01:29:29;3.28;;;1.52;;
47365;SDS011;33105;47.964;7.982;2023-07-29T01:33:54;4.13;;;1.40;;
47365;SDS011;33105;47.964;7.982;2023-07-29T01:38:01;3.28;;;1.63;;
47365;SDS011;33105;47.964;7.982;2023-07-29T01:41:07;2.72;;;1.67;;
47365;SDS011;33105;47.964;7.982;2023-07-29T01:48:07;1.70;;;1.50;;
47365;SDS011;33105;47.964;7.982;2023-07-29T01:51:25;4.43;;;1.55;;
47365;SDS011;33105;47.964;7.982;2023-07-29T01:55:12;6.00;;;1.70;;
47365;SDS011;33105;47.964;7.982;2023-07-29T01:58:16;6.15;;;1.58;;
47365;SDS011;33105;47.964;7.982;2023-07-29T02:01:28;3.17;;;1.83;;
47365;SDS011;33105;47.964;7.982;2023-07-29T02:04:55;4.20;;;1.70;;
47365;SDS011;33105;47.964;7.982;2023-07-29T02:08:00;2.08;;;1.85;;
47365;SDS011;33105;47.964;7.982;2023-07-29T02:11:07;2.30;;;1.40;;
47365;SDS011;33105;47.964;7.982;2023-07-29T02:14:10;8.05;;;1.85;;
47365;SDS011;33105;47.964;7.982;2023-07-29T02:17:24;1.98;;;1.63;;
47365;SDS011;33105;47.964;7.982;2023-07-29T02:20:29;3.47;;;1.65;;
47365;SDS011;33105;47.964;7.982;2023-07-29T02:23:41;4.05;;;1.95;;
47365;SDS011;33105;47.964;7.982;2023-07-29T02:26:43;4.38;;;1.77;;
47365;SDS011;33105;47.964;7.982;2023-07-29T02:30:12;7.38;;;1.83;;
47365;SDS011;33105;47.964;7.982;2023-07-29T02:34:21;4.45;;;1.77;;
47365;SDS011;33105;47.964;7.982;2023-07-29T02:37:34;3.17;;;1.63;;
47365;SDS011;33105;47.964;7.982;2023-07-29T02:40:52;4.25;;;1.50;;
47365;SDS011;33105;47.964;7.982;2023-07-29T02:44:22;1.60;;;1.50;;
47365;SDS011;33105;47.964;7.982;2023-07-29T02:48:01;2.78;;;1.45;;
47365;SDS011;33105;47.964;7.982;2023-07-29T02:52:38;5.70;;;1.73;;
47365;SDS011;33105;47.964;7.982;2023-07-29T02:56:38;4.40;;;1.60;;
47365;SDS011;33105;47.964;7.982;2023-07-29T02:59:40;4.20;;;1.55;;
47365;SDS011;33105;47.964;7.982;2023-07-29T03:02:43;3.17;;;1.60;;
47365;SDS011;33105;47.964;7.982;2023-07-29T03:06:11;2.58;;;1.65;;
47365;SDS011;33105;47.964;7.982;2023-07-29T03:09:29;3.50;;;1.60;;
47365;SDS011;33105;47.964;7.982;2023-07-29T03:12:35;8.77;;;1.80;;
47365;SDS011;33105;47.964;7.982;2023-07-29T03:15:51;2.58;;;1.50;;
47365;SDS011;33105;47.964;7.982;2023-07-29T03:18:55;3.83;;;1.75;;
47365;SDS011;33105;47.964;7.982;2023-07-29T03:21:57;2.47;;;1.52;;
47365;SDS011;33105;47.964;7.982;2023-07-29T03:25:13;4.13;;;1.70;;
47365;SDS011;33105;47.964;7.982;2023-07-29T03:28:21;4.35;;;1.70;;
47365;SDS011;33105;47.964;7.982;2023-07-29T03:31:25;3.40;;;1.75;;
47365;SDS011;33105;47.964;7.982;2023-07-29T03:35:32;2.50;;;1.70;;
47365;SDS011;33105;47.964;7.982;2023-07-29T03:38:46;6.57;;;1.85;;
47365;SDS011;33105;47.964;7.982;2023-07-29T03:41:49;3.97;;;1.60;;
47365;SDS011;33105;47.964;7.982;2023-07-29T03:45:11;4.63;;;1.40;;
47365;SDS011;33105;47.964;7.982;2023-07-29T03:53:13;2.63;;;1.80;;
47365;SDS011;33105;47.964;7.982;2023-07-29T03:57:00;4.68;;;1.95;;
47365;SDS011;33105;47.964;7.982;2023-07-29T04:00:37;3.00;;;1.60;;
47365;SDS011;33105;47.964;7.982;2023-07-29T04:04:11;6.93;;;1.80;;
47365;SDS011;33105;47.964;7.982;2023-07-29T04:07:31;2.90;;;1.80;;
47365;SDS011;33105;47.964;7.982;2023-07-29T04:15:14;5.40;;;2.00;;
47365;SDS011;33105;47.964;7.982;2023-07-29T04:18:25;5.07;;;1.90;;
47365;SDS011;33105;47.964;7.982;2023-07-29T04:21:28;2.55;;;1.60;;
47365;SDS011;33105;47.964;7.982;2023-07-29T04:24:31;2.90;;;1.70;;
47365;SDS011;33105;47.964;7.982;2023-07-29T04:27:53;2.15;;;1.95;;
47365;SDS011;33105;47.964;7.982;2023-07-29T04:31:01;4.78;;;2.13;;
47365;SDS011;33105;47.964;7.982;2023-07-29T04:34:04;6.65;;;1.92;;
47365;SDS011;33105;47.964;7.982;2023-07-29T04:37:33;2.40;;;1.77;;
47365;SDS011;33105;47.964;7.982;2023-07-29T04:44:46;6.18;;;1.80;;
47365;SDS011;33105;47.964;7.982;2023-07-29T04:48:55;2.88;;;1.77;;
47365;SDS011;33105;47.964;7.982;2023-07-29T04:52:00;3.47;;;1.80;;
47365;SDS011;33105;47.964;7.982;2023-07-29T04:55:02;5.60;;;2.10;;
47365;SDS011;33105;47.964;7.982;2023-07-29T04:58:35;6.55;;;1.52;;
47365;SDS011;33105;47.964;7.982;2023-07-29T05:01:45;5.47;;;1.95;;
47365;SDS011;33105;47.964;7.982;2023-07-29T05:05:35;5.15;;;2.00;;
47365;SDS011;33105;47.964;7.982;2023-07-29T05:08:40;2.92;;;2.00;;
47365;SDS011;33105;47.964;7.982;2023-07-29T05:11:43;6.93;;;1.90;;
47365;SDS011;33105;47.964;7.982;2023-07-29T05:14:57;9.38;;;2.75;;
47365;SDS011;33105;47.964;7.982;2023-07-29T05:17:59;4.05;;;2.40;;
47365;SDS011;33105;47.964;7.982;2023-07-29T05:21:01;3.22;;;2.30;;
47365;SDS011;33105;47.964;7.982;2023-07-29T05:24:03;5.88;;;2.45;;
47365;SDS011;33105;47.964;7.982;2023-07-29T05:27:08;4.30;;;2.45;;
47365;SDS011;33105;47.964;7.982;2023-07-29T05:30:10;6.80;;;2.72;;
47365;SDS011;33105;47.964;7.982;2023-07-29T05:33:12;7.82;;;2.90;;
47365;SDS011;33105;47.964;7.982;2023-07-29T05:36:15;7.63;;;2.63;;
47365;SDS011;33105;47.964;7.982;2023-07-29T05:39:16;6.68;;;2.60;;
47365;SDS011;33105;47.964;7.982;2023-07-29T05:42:18;9.60;;;2.55;;
47365;SDS011;33105;47.964;7.982;2023-07-29T05:45:24;3.72;;;2.65;;
47365;SDS011;33105;47.964;7.982;2023-07-29T05:48:25;11.18;;;3.05;;
47365;SDS011;33105;47.964;7.982;2023-07-29T05:51:27;2.75;;;2.55;;
47365;SDS011;33105;47.964;7.982;2023-07-29T05:54:29;7.07;;;2.72;;
47365;SDS011;33105;47.964;7.982;2023-07-29T05:57:33;9.45;;;3.05;;
47365;SDS011;33105;47.964;7.982;2023-07-29T06:00:34;6.30;;;2.42;;
47365;SDS011;33105;47.964;7.982;2023-07-29T06:03:36;10.32;;;3.78;;
47365;SDS011;33105;47.964;7.982;2023-07-29T06:06:41;4.13;;;3.58;;
47365;SDS011;33105;47.964;7.982;2023-07-29T06:09:42;7.45;;;3.33;;
47365;SDS011;33105;47.964;7.982;2023-07-29T06:12:44;3.25;;;2.40;;
47365;SDS011;33105;47.964;7.982;2023-07-29T06:15:46;4.10;;;2.95;;
47365;SDS011;33105;47.964;7.982;2023-07-29T06:18:49;2.65;;;2.45;;
47365;SDS011;33105;47.964;7.982;2023-07-29T06:21:50;5.30;;;2.78;;
47365;SDS011;33105;47.964;7.982;2023-07-29T06:24:52;2.50;;;2.30;;
47365;SDS011;33105;47.964;7.982;2023-07-29T06:27:55;5.93;;;3.10;;
47365;SDS011;33105;47.964;7.982;2023-07-29T06:30:57;7.55;;;2.50;;
47365;SDS011;33105;47.964;7.982;2023-07-29T06:34:00;7.38;;;2.25;;
47365;SDS011;33105;47.964;7.982;2023-07-29T06:37:01;4.97;;;2.15;;
47365;SDS011;33105;47.964;7.982;2023-07-29T06:40:02;3.78;;;1.98;;
47365;SDS011;33105;47.964;7.982;2023-07-29T06:43:04;3.00;;;2.13;;
47365;SDS011;33105;47.964;7.982;2023-07-29T06:46:07;3.58;;;1.95;;
47365;SDS011;33105;47.964;7.982;2023-07-29T06:49:08;3.83;;;1.88;;
47365;SDS011;33105;47.964;7.982;2023-07-29T06:52:12;5.32;;;2.33;;
47365;SDS011;33105;47.964;7.982;2023-07-29T06:55:17;4.88;;;2.20;;
47365;SDS011;33105;47.964;7.982;2023-07-29T06:58:19;3.33;;;2.15;;
47365;SDS011;33105;47.964;7.982;2023-07-29T07:01:21;6.10;;;2.30;;
47365;SDS011;33105;47.964;7.982;2023-07-29T07:04:25;3.90;;;1.60;;
47365;SDS011;33105;47.964;7.982;2023-07-29T07:07:33;3.30;;;1.83;;
47365;SDS011;33105;47.964;7.982;2023-07-29T07:10:38;5.50;;;1.80;;
47365;SDS011;33105;47.964;7.982;2023-07-29T07:13:40;2.55;;;1.90;;
47365;SDS011;33105;47.964;7.982;2023-07-29T07:16:43;5.20;;;1.90;;
47365;SDS011;33105;47.964;7.982;2023-07-29T07:19:45;4.80;;;2.22;;
47365;SDS011;33105;47.964;7.982;2023-07-29T07:22:49;4.22;;;2.30;;
47365;SDS011;33105;47.964;7.982;2023-07-29T07:25:50;2.38;;;2.00;;
47365;SDS011;33105;47.964;7.982;2023-07-29T07:28:51;4.78;;;2.17;;
47365;SDS011;33105;47.964;7.982;2023-07-29T07:31:53;2.42;;;1.98;;
47365;SDS011;33105;47.964;7.982;2023-07-29T07:34:56;5.95;;;2.40;;
47365;SDS011;33105;47.964;7.982;2023-07-29T07:37:57;4.57;;;2.40;;
47365;SDS011;33105;47.964;7.982;2023-07-29T07:41:04;3.60;;;2.30;;
47365;SDS011;33105;47.964;7.982;2023-07-29T07:44:06;5.78;;;2.50;;
47365;SDS011;33105;47.964;7.982;2023-07-29T07:47:08;3.97;;;2.30;;
47365;SDS011;33105;47.964;7.982;2023-07-29T07:50:10;4.32;;;2.47;;
47365;SDS011;33105;47.964;7.982;2023-07-29T07:53:13;5.20;;;2.60;;
47365;SDS011;33105;47.964;7.982;2023-07-29T07:56:15;6.53;;;2.50;;
47365;SDS011;33105;47.964;7.982;2023-07-29T07:59:17;3.28;;;2.60;;
47365;SDS011;33105;47.964;7.982;2023-07-29T08:02:20;3.63;;;2.50;;
47365;SDS011;33105;47.964;7.982;2023-07-29T08:05:23;3.47;;;2.15;;
47365;SDS011;33105;47.964;7.982;2023-07-29T08:08:25;3.38;;;2.08;;
47365;SDS011;33105;47.964;7.982;2023-07-29T08:11:27;4.47;;;2.40;;
47365;SDS011;33105;47.964;7.982;2023-07-29T08:14:29;5.63;;;2.50;;
47365;SDS011;33105;47.964;7.982;2023-07-29T08:17:31;3.03;;;1.90;;
47365;SDS011;33105;47.964;7.982;2023-07-29T08:20:32;4.82;;;2.45;;
47365;SDS011;33105;47.964;7.982;2023-07-29T08:23:34;4.47;;;1.88;;
47365;SDS011;33105;47.964;7.982;2023-07-29T08:26:37;4.20;;;2.20;;
47365;SDS011;33105;47.964;7.982;2023-07-29T08:29:39;5.93;;;2.38;;
47365;SDS011;33105;47.964;7.982;2023-07-29T08:32:41;3.75;;;2.40;;
47365;SDS011;33105;47.964;7.982;2023-07-29T08:35:44;4.38;;;1.77;;
47365;SDS011;33105;47.964;7.982;2023-07-29T08:38:48;2.30;;;1.92;;
47365;SDS011;33105;47.964;7.982;2023-07-29T08:42:00;5.53;;;2.53;;
47365;SDS011;33105;47.964;7.982;2023-07-29T08:45:07;4.57;;;2.38;;
47365;SDS011;33105;47.964;7.982;2023-07-29T08:48:10;2.30;;;2.10;;
47365;SDS011;33105;47.964;7.982;2023-07-29T08:51:13;2.45;;;2.17;;
47365;SDS011;33105;47.964;7.982;2023-07-29T08:54:18;4.03;;;1.80;;
47365;SDS011;33105;47.964;7.982;2023-07-29T08:57:23;7.97;;;2.30;;
47365;SDS011;33105;47.964;7.982;2023-07-29T09:00:27;2.85;;;2.00;;
47365;SDS011;33105;47.964;7.982;2023-07-29T09:03:30;3.72;;;2.03;;
47365;SDS011;33105;47.964;7.982;2023-07-29T09:06:33;2.38;;;2.08;;
47365;SDS011;33105;47.964;7.982;2023-07-29T09:09:36;3.78;;;2.40;;
47365;SDS011;33105;47.964;7.982;2023-07-29T09:12:38;2.35;;;1.80;;
47365;SDS011;33105;47.964;7.982;2023-07-29T09:15:39;5.18;;;2.53;;
47365;SDS011;33105;47.964;7.982;2023-07-29T09:18:45;4.63;;;2.22;;
47365;SDS011;33105;47.964;7.982;2023-07-29T09:21:51;2.88;;;2.58;;
47365;SDS011;33105;47.964;7.982;2023-07-29T09:24:52;4.88;;;2.25;;
47365;SDS011;33105;47.964;7.982;2023-07-29T09:27:59;4.40;;;2.13;;
47365;SDS011;33105;47.964;7.982;2023-07-29T09:31:02;4.82;;;2.17;;
47365;SDS011;33105;47.964;7.982;2023-07-29T09:34:04;2.88;;;1.83;;
47365;SDS011;33105;47.964;7.982;2023-07-29T09:37:07;4.05;;;2.30;;
47365;SDS011;33105;47.964;7.982;2023-07-29T09:40:13;2.90;;;2.20;;
47365;SDS011;33105;47.964;7.982;2023-07-29T09:43:18;3.47;;;2.00;;
47365;SDS011;33105;47.964;7.982;2023-07-29T09:46:23;3.35;;;2.17;;
47365;SDS011;33105;47.964;7.982;2023-07-29T09:49:37;5.03;;;2.30;;
47365;SDS011;33105;47.964;7.982;2023-07-29T09:52:45;3.10;;;1.88;;
47365;SDS011;33105;47.964;7.982;2023-07-29T09:55:58;8.20;;;2.35;;
47365;SDS011;33105;47.964;7.982;2023-07-29T09:59:08;3.38;;;2.00;;
47365;SDS011;33105;47.964;7.982;2023-07-29T10:02:34;3.72;;;1.95;;
47365;SDS011;33105;47.964;7.982;2023-07-29T10:05:50;3.75;;;2.08;;
47365;SDS011;33105;47.964;7.982;2023-07-29T10:09:12;3.88;;;2.25;;
47365;SDS011;33105;47.964;7.982;2023-07-29T10:12:23;5.72;;;2.05;;
47365;SDS011;33105;47.964;7.982;2023-07-29T10:15:37;4.72;;;2.42;;
47365;SDS011;33105;47.964;7.982;2023-07-29T10:22:15;2.15;;;1.58;;
47365;SDS011;33105;47.964;7.982;2023-07-29T10:25:33;3.40;;;2.20;;
47365;SDS011;33105;47.964;7.982;2023-07-29T10:28:53;3.50;;;2.00;;
47365;SDS011;33105;47.964;7.982;2023-07-29T10:32:17;3.22;;;2.15;;
47365;SDS011;33105;47.964;7.982;2023-07-29T10:36:28;4.57;;;1.85;;
47365;SDS011;33105;47.964;7.982;2023-07-29T10:39:53;3.70;;;1.85;;
47365;SDS011;33105;47.964;7.982;2023-07-29T10:47:32;2.47;;;1.90;;
47365;SDS011;33105;47.964;7.982;2023-07-29T10:50:48;4.80;;;1.90;;
47365;SDS011;33105;47.964;7.982;2023-07-29T10:54:00;3.97;;;1.70;;
47365;SDS011;33105;47.964;7.982;2023-07-29T10:58:16;3.42;;;1.60;;
47365;SDS011;33105;47.964;7.982;2023-07-29T11:05:44;6.90;;;1.88;;
47365;SDS011;33105;47.964;7.982;2023-07-29T11:08:50;3.72;;;1.80;;
47365;SDS011;33105;47.964;7.982;2023-07-29T11:17:37;3.25;;;2.03;;
47365;SDS011;33105;47.964;7.982;2023-07-29T11:20:45;3.08;;;1.90;;
47365;SDS011;33105;47.964;7.982;2023-07-29T11:28:21;2.33;;;1.80;;
47365;SDS011;33105;47.964;7.982;2023-07-29T11:31:50;2.13;;;1.92;;
47365;SDS011;33105;47.964;7.982;2023-07-29T11:35:03;2.20;;;1.70;;
47365;SDS011;33105;47.964;7.982;2023-07-29T11:38:43;5.93;;;1.98;;
47365;SDS011;33105;47.964;7.982;2023-07-29T11:41:49;2.38;;;1.63;;
47365;SDS011;33105;47.964;7.982;2023-07-29T11:45:06;6.35;;;1.73;;
47365;SDS011;33105;47.964;7.982;2023-07-29T11:48:11;1.70;;;1.52;;
47365;SDS011;33105;47.964;7.982;2023-07-29T11:51:23;2.78;;;1.60;;
47365;SDS011;33105;47.964;7.982;2023-07-29T11:54:41;3.40;;;1.33;;
47365;SDS011;33105;47.964;7.982;2023-07-29T11:58:11;2.50;;;1.70;;
47365;SDS011;33105;47.964;7.982;2023-07-29T12:05:37;3.50;;;1.60;;
47365;SDS011;33105;47.964;7.982;2023-07-29T12:14:18;1.90;;;1.50;;
47365;SDS011;33105;47.964;7.982;2023-07-29T12:17:31;1.85;;;1.48;;
47365;SDS011;33105;47.964;7.982;2023-07-29T12:21:33;2.50;;;1.58;;
47365;SDS011;33105;47.964;7.982;2023-07-29T12:24:48;4.43;;;1.65;;
47365;SDS011;33105;47.964;7.982;2023-07-29T12:33:55;1.90;;;1.70;;
47365;SDS011;33105;47.964;7.982;2023-07-29T12:42:38;3.92;;;1.70;;
47365;SDS011;33105;47.964;7.982;2023-07-29T12:50:40;1.70;;;1.60;;
47365;SDS011;33105;47.964;7.982;2023-07-29T12:53:58;2.60;;;1.60;;
47365;SDS011;33105;47.964;7.982;2023-07-29T12:57:01;4.07;;;1.60;;
47365;SDS011;33105;47.964;7.982;2023-07-29T13:00:14;3.53;;;1.42;;
47365;SDS011;33105;47.964;7.982;2023-07-29T13:04:23;3.65;;;1.75;;
47365;SDS011;33105;47.964;7.982;2023-07-29T13:07:28;3.25;;;1.80;;
47365;SDS011;33105;47.964;7.982;2023-07-29T13:11:11;3.33;;;1.48;;
47365;SDS011;33105;47.964;7.982;2023-07-29T13:14:14;3.60;;;2.03;;
47365;SDS011;33105;47.964;7.982;2023-07-29T13:17:16;2.30;;;1.70;;
47365;SDS011;33105;47.964;7.982;2023-07-29T13:20:17;3.00;;;1.58;;
47365;SDS011;33105;47.964;7.982;2023-07-29T13:23:20;3.22;;;1.80;;
47365;SDS011;33105;47.964;7.982;2023-07-29T13:36:29;5.50;;;1.73;;
47365;SDS011;33105;47.964;7.982;2023-07-29T13:39:31;1.73;;;1.63;;
47365;SDS011;33105;47.964;7.982;2023-07-29T13:42:36;2.80;;;1.67;;
47365;SDS011;33105;47.964;7.982;2023-07-29T13:45:37;1.60;;;1.50;;
47365;SDS011;33105;47.964;7.982;2023-07-29T13:48:40;2.13;;;1.60;;
47365;SDS011;33105;47.964;7.982;2023-07-29T13:51:41;1.90;;;1.60;;
47365;SDS011;33105;47.964;7.982;2023-07-29T13:54:43;3.28;;;1.70;;
47365;SDS011;33105;47.964;7.982;2023-07-29T13:57:48;1.45;;;1.35;;
47365;SDS011;33105;47.964;7.982;2023-07-29T14:00:50;2.67;;;1.50;;
47365;SDS011;33105;47.964;7.982;2023-07-29T14:03:52;2.47;;;2.10;;
47365;SDS011;33105;47.964;7.982;2023-07-29T14:06:53;1.73;;;1.60;;
47365;SDS011;33105;47.964;7.982;2023-07-29T14:09:58;3.33;;;1.42;;
47365;SDS011;33105;47.964;7.982;2023-07-29T14:13:02;2.85;;;1.73;;
47365;SDS011;33105;47.964;7.982;2023-07-29T14:16:17;2.78;;;1.45;;
47365;SDS011;33105;47.964;7.982;2023-07-29T14:19:23;2.15;;;1.90;;
47365;SDS011;33105;47.964;7.982;2023-07-29T14:22:25;2.70;;;1.90;;
47365;SDS011;33105;47.964;7.982;2023-07-29T14:25:36;1.70;;;1.60;;
47365;SDS011;33105;47.964;7.982;2023-07-29T14:28:41;2.20;;;1.75;;
47365;SDS011;33105;47.964;7.982;2023-07-29T14:31:43;2.53;;;1.85;;
47365;SDS011;33105;47.964;7.982;2023-07-29T14:35:06;4.00;;;2.10;;
47365;SDS011;33105;47.964;7.982;2023-07-29T14:38:14;3.30;;;2.23;;
47365;SDS011;33105;47.964;7.982;2023-07-29T14:41:22;2.92;;;2.17;;
47365;SDS011;33105;47.964;7.982;2023-07-29T14:44:25;2.25;;;1.95;;
47365;SDS011;33105;47.964;7.982;2023-07-29T14:48:11;4.60;;;2.60;;
47365;SDS011;33105;47.964;7.982;2023-07-29T14:51:16;3.13;;;2.28;;
47365;SDS011;33105;47.964;7.982;2023-07-29T14:54:18;6.00;;;2.25;;
47365;SDS011;33105;47.964;7.982;2023-07-29T14:57:19;5.60;;;2.90;;
47365;SDS011;33105;47.964;7.982;2023-07-29T15:00:21;5.18;;;2.55;;
47365;SDS011;33105;47.964;7.982;2023-07-29T15:03:24;5.97;;;2.90;;
47365;SDS011;33105;47.964;7.982;2023-07-29T15:06:26;6.18;;;2.97;;
47365;SDS011;33105;47.964;7.982;2023-07-29T15:09:35;3.83;;;2.70;;
47365;SDS011;33105;47.964;7.982;2023-07-29T15:12:37;6.13;;;2.28;;
47365;SDS011;33105;47.964;7.982;2023-07-29T15:15:42;3.05;;;2.10;;
47365;SDS011;33105;47.964;7.982;2023-07-29T15:18:44;3.25;;;2.35;;
47365;SDS011;33105;47.964;7.982;2023-07-29T15:21:45;3.15;;;2.30;;
47365;SDS011;33105;47.964;7.982;2023-07-29T15:24:50;4.13;;;2.63;;
47365;SDS011;33105;47.964;7.982;2023-07-29T15:28:23;4.60;;;2.60;;
47365;SDS011;33105;47.964;7.982;2023-07-29T15:31:43;3.22;;;2.15;;
47365;SDS011;33105;47.964;7.982;2023-07-29T15:35:05;4.10;;;2.30;;
47365;SDS011;33105;47.964;7.982;2023-07-29T15:38:11;3.17;;;2.17;;
47365;SDS011;33105;47.964;7.982;2023-07-29T15:41:14;3.38;;;2.70;;
47365;SDS011;33105;47.964;7.982;2023-07-29T15:44:18;2.65;;;2.05;;
47365;SDS011;33105;47.964;7.982;2023-07-29T15:47:27;3.00;;;2.40;;
47365;SDS011;33105;47.964;7.982;2023-07-29T15:50:32;3.97;;;2.30;;
47365;SDS011;33105;47.964;7.982;2023-07-29T15:53:38;3.40;;;2.47;;
47365;SDS011;33105;47.964;7.982;2023-07-29T15:56:39;4.30;;;2.47;;
47365;SDS011;33105;47.964;7.982;2023-07-29T16:00:00;2.78;;;2.30;;
47365;SDS011;33105;47.964;7.982;2023-07-29T16:03:02;2.50;;;2.13;;
47365;SDS011;33105;47.964;7.982;2023-07-29T16:06:29;4.13;;;2.60;;
47365;SDS011;33105;47.964;7.982;2023-07-29T16:09:34;3.95;;;2.58;;
47365;SDS011;33105;47.964;7.982;2023-07-29T16:12:42;2.90;;;2.60;;
47365;SDS011;33105;47.964;7.982;2023-07-29T16:15:43;3.15;;;2.80;;
47365;SDS011;33105;47.964;7.982;2023-07-29T16:18:48;2.88;;;2.50;;
47365;SDS011;33105;47.964;7.982;2023-07-29T16:21:50;3.08;;;2.70;;
47365;SDS011;33105;47.964;7.982;2023-07-29T16:24:52;4.50;;;2.40;;
47365;SDS011;33105;47.964;7.982;2023-07-29T16:27:54;3.78;;;2.85;;
47365;SDS011;33105;47.964;7.982;2023-07-29T16:31:03;4.78;;;2.60;;
47365;SDS011;33105;47.964;7.982;2023-07-29T16:34:14;2.97;;;2.50;;
47365;SDS011;33105;47.964;7.982;2023-07-29T16:37:15;2.90;;;2.60;;
47365;SDS011;33105;47.964;7.982;2023-07-29T16:40:27;4.90;;;4.13;;
47365;SDS011;33105;47.964;7.982;2023-07-29T16:43:37;3.33;;;3.03;;
47365;SDS011;33105;47.964;7.982;2023-07-29T16:46:59;3.47;;;2.85;;
47365;SDS011;33105;47.964;7.982;2023-07-29T16:50:13;4.07;;;3.10;;
47365;SDS011;33105;47.964;7.982;2023-07-29T16:53:16;3.20;;;2.90;;
47365;SDS011;33105;47.964;7.982;2023-07-29T16:56:17;9.00;;;7.20;;
47365;SDS011;33105;47.964;7.982;2023-07-29T16:59:22;5.03;;;4.13;;
47365;SDS011;33105;47.964;7.982;2023-07-29T17:02:23;4.68;;;4.07;;
47365;SDS011;33105;47.964;7.982;2023-07-29T17:05:24;4.65;;;3.25;;
47365;SDS011;33105;47.964;7.982;2023-07-29T17:08:32;3.50;;;2.70;;
47365;SDS011;33105;47.964;7.982;2023-07-29T17:11:33;3.33;;;3.03;;
47365;SDS011;33105;47.964;7.982;2023-07-29T17:14:35;3.38;;;2.75;;
47365;SDS011;33105;47.964;7.982;2023-07-29T17:17:36;3.28;;;2.70;;
47365;SDS011;33105;47.964;7.982;2023-07-29T17:20:40;3.03;;;2.72;;
47365;SDS011;33105;47.964;7.982;2023-07-29T17:23:42;3.33;;;2.90;;
47365;SDS011;33105;47.964;7.982;2023-07-29T17:26:44;3.30;;;2.63;;
47365;SDS011;33105;47.964;7.982;2023-07-29T17:29:45;4.05;;;3.20;;
47365;SDS011;33105;47.964;7.982;2023-07-29T17:32:48;5.07;;;3.00;;
47365;SDS011;33105;47.964;7.982;2023-07-29T17:35:52;4.38;;;3.30;;
47365;SDS011;33105;47.964;7.982;2023-07-29T17:38:55;5.38;;;3.00;;
47365;SDS011;33105;47.964;7.982;2023-07-29T17:41:58;3.42;;;2.88;;
47365;SDS011;33105;47.964;7.982;2023-07-29T17:44:59;3.05;;;2.72;;
47365;SDS011;33105;47.964;7.982;2023-07-29T17:48:02;4.25;;;3.20;;
47365;SDS011;33105;47.964;7.982;2023-07-29T17:51:05;4.13;;;3.22;;
47365;SDS011;33105;47.964;7.982;2023-07-29T17:54:06;4.75;;;2.95;;
47365;SDS011;33105;47.964;7.982;2023-07-29T17:57:08;5.07;;;3.60;;
47365;SDS011;33105;47.964;7.982;2023-07-29T18:00:10;3.40;;;3.10;;
47365;SDS011;33105;47.964;7.982;2023-07-29T18:03:11;3.55;;;3.25;;
47365;SDS011;33105;47.964;7.982;2023-07-29T18:06:15;4.95;;;3.45;;
47365;SDS011;33105;47.964;7.982;2023-07-29T18:09:18;3.97;;;3.58;;
47365;SDS011;33105;47.964;7.982;2023-07-29T18:12:24;4.90;;;3.28;;
47365;SDS011;33105;47.964;7.982;2023-07-29T18:15:27;3.97;;;3.50;;
47365;SDS011;33105;47.964;7.982;2023-07-29T18:18:32;7.93;;;3.53;;
47365;SDS011;33105;47.964;7.982;2023-07-29T18:21:34;4.15;;;3.25;;
47365;SDS011;33105;47.964;7.982;2023-07-29T18:24:37;9.05;;;3.10;;
47365;SDS011;33105;47.964;7.982;2023-07-29T18:27:40;4.40;;;3.63;;
47365;SDS011;33105;47.964;7.982;2023-07-29T18:30:44;4.05;;;3.58;;
47365;SDS011;33105;47.964;7.982;2023-07-29T18:33:48;4.30;;;3.60;;
47365;SDS011;33105;47.964;7.982;2023-07-29T18:36:49;5.43;;;3.70;;
47365;SDS011;33105;47.964;7.982;2023-07-29T18:39:51;5.38;;;4.00;;
47365;SDS011;33105;47.964;7.982;2023-07-29T18:42:55;8.65;;;4.68;;
47365;SDS011;33105;47.964;7.982;2023-07-29T18:45:57;6.68;;;4.22;;
47365;SDS011;33105;47.964;7.982;2023-07-29T18:49:00;3.85;;;3.30;;
47365;SDS011;33105;47.964;7.982;2023-07-29T18:52:02;8.25;;;3.65;;
47365;SDS011;33105;47.964;7.982;2023-07-29T18:55:05;4.18;;;3.78;;
47365;SDS011;33105;47.964;7.982;2023-07-29T18:58:07;4.70;;;3.40;;
47365;SDS011;33105;47.964;7.982;2023-07-29T19:01:10;4.75;;;3.90;;
47365;SDS011;33105;47.964;7.982;2023-07-29T19:04:13;7.68;;;4.15;;
47365;SDS011;33105;47.964;7.982;2023-07-29T19:07:15;6.82;;;4.38;;
47365;SDS011;33105;47.964;7.982;2023-07-29T19:10:17;7.88;;;4.53;;
47365;SDS011;33105;47.964;7.982;2023-07-29T19:13:20;9.70;;;4.22;;
47365;SDS011;33105;47.964;7.982;2023-07-29T19:16:23;5.82;;;4.00;;
47365;SDS011;33105;47.964;7.982;2023-07-29T19:19:24;5.15;;;4.25;;
47365;SDS011;33105;47.964;7.982;2023-07-29T19:22:25;10.73;;;4.72;;
47365;SDS011;33105;47.964;7.982;2023-07-29T19:25:28;5.43;;;4.15;;
47365;SDS011;33105;47.964;7.982;2023-07-29T19:28:30;7.68;;;4.70;;
47365;SDS011;33105;47.964;7.982;2023-07-29T19:31:32;9.27;;;4.53;;
47365;SDS011;33105;47.964;7.982;2023-07-29T19:34:34;7.55;;;4.85;;
47365;SDS011;33105;47.964;7.982;2023-07-29T19:37:36;7.75;;;4.22;;
47365;SDS011;33105;47.964;7.982;2023-07-29T19:40:40;5.80;;;4.53;;
47365;SDS011;33105;47.964;7.982;2023-07-29T19:43:42;10.18;;;4.57;;
47365;SDS011;33105;47.964;7.982;2023-07-29T19:46:46;9.32;;;5.30;;
47365;SDS011;33105;47.964;7.982;2023-07-29T19:49:49;8.48;;;4.57;;
47365;SDS011;33105;47.964;7.982;2023-07-29T19:52:51;7.68;;;4.25;;
47365;SDS011;33105;47.964;7.982;2023-07-29T19:55:53;6.45;;;4.30;;
47365;SDS011;33105;47.964;7.982;2023-07-29T19:58:56;8.52;;;3.95;;
47365;SDS011;33105;47.964;7.982;2023-07-29T20:01:59;5.25;;;3.72;;
47365;SDS011;33105;47.964;7.982;2023-07-29T20:05:04;7.97;;;3.65;;
47365;SDS011;33105;47.964;7.982;2023-07-29T20:08:07;6.00;;;4.00;;
47365;SDS011;33105;47.964;7.982;2023-07-29T20:11:09;6.93;;;3.40;;
47365;SDS011;33105;47.964;7.982;2023-07-29T20:14:12;6.75;;;3.47;;
47365;SDS011;33105;47.964;7.982;2023-07-29T20:17:15;6.65;;;3.67;;
47365;SDS011;33105;47.964;7.982;2023-07-29T20:20:18;5.50;;;3.80;;
47365;SDS011;33105;47.964;7.982;2023-07-29T20:23:19;5.00;;;3.65;;
47365;SDS011;33105;47.964;7.982;2023-07-29T20:26:21;5.30;;;4.03;;
47365;SDS011;33105;47.964;7.982;2023-07-29T20:29:24;6.78;;;4.10;;
47365;SDS011;33105;47.964;7.982;2023-07-29T20:32:27;5.88;;;3.33;;
47365;SDS011;33105;47.964;7.982;2023-07-29T20:35:30;4.07;;;3.67;;
47365;SDS011;33105;47.964;7.982;2023-07-29T20:38:32;5.20;;;3.35;;
47365;SDS011;33105;47.964;7.982;2023-07-29T20:41:35;4.18;;;3.50;;